sensor_id;sensor_type;location;lat;lon;timestamp;pressure;altitude;pressure_sealevel;temperature;humidity
40384;BME280;26097;42.366;23.818;2023-08-06T00:00:53;92970.03;;;19.89;100.00
40384;BME280;26097;42.366;23.818;2023-08-06T00:03:53;92948.44;;;19.78;100.00
40384;BME280;26097;42.366;23.818;2023-08-06T00:06:52;92934.22;;;19.79;100.00
40384;BME280;26097;42.366;23.818;2023-08-06T00:09:51;92933.59;;;19.77;100.00
40384;BME280;26097;42.366;23.818;2023-08-06T00:12:51;92958.00;;;19.79;100.00
40384;BME280;26097;42.366;23.818;2023-08-06T00:15:50;92961.66;;;19.78;100.00
40384;BME280;26097;42.366;23.818;2023-08-06T00:18:50;92978.94;;;19.74;100.00
40384;BME280;26097;42.366;23.818;2023-08-06T00:21:49;92983.41;;;19.80;100.00
40384;BME280;26097;42.366;23.818;2023-08-06T00:24:48;92999.06;;;19.75;100.00
40384;BME280;26097;42.366;23.818;2023-08-06T00:27:48;92989.94;;;19.71;100.00
40384;BME280;26097;42.366;23.818;2023-08-06T00:30:53;92966.84;;;19.38;100.00
40384;BME280;26097;42.366;23.818;2023-08-06T00:33:53;92955.00;;;18.78;100.00
40384;BME280;26097;42.366;23.818;2023-08-06T00:36:52;92960.44;;;18.41;100.00
40384;BME280;26097;42.366;23.818;2023-08-06T00:39:52;92950.47;;;18.08;100.00
40384;BME280;26097;42.366;23.818;2023-08-06T00:42:52;92944.31;;;17.79;100.00
40384;BME280;26097;42.366;23.818;2023-08-06T00:45:51;92946.50;;;17.76;100.00
40384;BME280;26097;42.366;23.818;2023-08-06T00:48:51;92948.13;;;17.77;100.00
40384;BME280;26097;42.366;23.818;2023-08-06T00:51:51;92947.44;;;17.90;100.00
40384;BME280;26097;42.366;23.818;2023-08-06T00:54:51;92928.03;;;17.76;100.00
40384;BME280;26097;42.366;23.818;2023-08-06T00:57:50;92906.59;;;17.57;100.00
40384;BME280;26097;42.366;23.818;2023-08-06T01:00:51;92893.56;;;17.49;100.00
40384;BME280;26097;42.366;23.818;2023-08-06T01:03:51;92884.03;;;17.48;100.00
40384;BME280;26097;42.366;23.818;2023-08-06T01:13:17;92881.47;;;17.33;100.00
40384;BME280;26097;42.366;23.818;2023-08-06T01:16:20;92883.47;;;17.31;100.00
40384;BME280;26097;42.366;23.818;2023-08-06T01:19:21;92898.69;;;17.35;100.00
40384;BME280;26097;42.366;23.818;2023-08-06T01:22:20;92903.63;;;17.23;100.00
40384;BME280;26097;42.366;23.818;2023-08-06T01:25:20;92893.09;;;17.23;100.00
40384;BME280;26097;42.366;23.818;2023-08-06T01:28:30;92902.63;;;17.24;100.00
40384;BME280;26097;42.366;23.818;2023-08-06T01:31:37;92893.09;;;17.23;100.00
40384;BME280;26097;42.366;23.818;2023-08-06T01:34:39;92874.03;;;17.21;100.00
40384;BME280;26097;42.366;23.818;2023-08-06T01:37:40;92858.63;;;17.18;100.00
40384;BME280;26097;42.366;23.818;2023-08-06T01:40:40;92840.34;;;17.10;100.00
40384;BME280;26097;42.366;23.818;2023-08-06T01:43:39;92850.78;;;17.03;100.00
40384;BME280;26097;42.366;23.818;2023-08-06T01:46:39;92856.59;;;16.98;100.00
40384;BME280;26097;42.366;23.818;2023-08-06T01:49:38;92856.03;;;16.88;100.00
40384;BME280;26097;42.366;23.818;2023-08-06T01:52:38;92858.03;;;16.86;100.00
40384;BME280;26097;42.366;23.818;2023-08-06T01:55:37;92845.00;;;16.78;100.00
40384;BME280;26097;42.366;23.818;2023-08-06T01:58:37;92844.63;;;16.81;100.00
40384;BME280;26097;42.366;23.818;2023-08-06T02:01:36;92835.66;;;16.90;100.00
40384;BME280;26097;42.366;23.818;2023-08-06T02:04:35;92856.69;;;16.90;100.00
40384;BME280;26097;42.366;23.818;2023-08-06T02:07:35;92853.69;;;16.93;100.00
40384;BME280;26097;42.366;23.818;2023-08-06T02:10:34;92848.44;;;16.93;100.00
40384;BME280;26097;42.366;23.818;2023-08-06T02:13:33;92845.16;;;16.91;100.00
40384;BME280;26097;42.366;23.818;2023-08-06T02:16:33;92864.38;;;17.07;100.00
40384;BME280;26097;42.366;23.818;2023-08-06T02:19:32;92865.38;;;17.06;100.00
40384;BME280;26097;42.366;23.818;2023-08-06T02:22:32;92870.38;;;17.01;100.00
40384;BME280;26097;42.366;23.818;2023-08-06T02:25:32;92870.53;;;17.14;100.00
40384;BME280;26097;42.366;23.818;2023-08-06T02:28:32;92871.25;;;17.23;100.00
40384;BME280;26097;42.366;23.818;2023-08-06T02:31:31;92866.91;;;17.15;100.00
40384;BME280;26097;42.366;23.818;2023-08-06T02:34:31;92860.72;;;17.08;100.00
40384;BME280;26097;42.366;23.818;2023-08-06T02:37:33;92862.75;;;17.06;100.00
40384;BME280;26097;42.366;23.818;2023-08-06T02:40:33;92858.47;;;17.05;100.00
40384;BME280;26097;42.366;23.818;2023-08-06T02:43:32;92854.03;;;17.05;100.00
40384;BME280;26097;42.366;23.818;2023-08-06T02:46:32;92860.38;;;17.11;100.00
40384;BME280;26097;42.366;23.818;2023-08-06T02:49:31;92865.91;;;17.16;100.00
40384;BME280;26097;42.366;23.818;2023-08-06T02:52:30;92867.69;;;17.16;100.00
40384;BME280;26097;42.366;23.818;2023-08-06T02:55:30;92857.63;;;17.19;100.00
40384;BME280;26097;42.366;23.818;2023-08-06T02:58:29;92862.88;;;17.19;100.00
40384;BME280;26097;42.366;23.818;2023-08-06T03:01:28;92842.06;;;17.24;100.00
40384;BME280;26097;42.366;23.818;2023-08-06T03:04:28;92837.38;;;17.20;100.00
40384;BME280;26097;42.366;23.818;2023-08-06T03:07:27;92842.44;;;17.21;100.00
40384;BME280;26097;42.366;23.818;2023-08-06T03:10:27;92860.72;;;17.23;100.00
40384;BME280;26097;42.366;23.818;2023-08-06T03:13:26;92889.47;;;17.24;100.00
40384;BME280;26097;42.366;23.818;2023-08-06T03:16:27;92903.88;;;17.28;100.00
40384;BME280;26097;42.366;23.818;2023-08-06T03:19:26;92924.09;;;17.43;100.00
40384;BME280;26097;42.366;23.818;2023-08-06T03:22:26;92919.38;;;17.38;100.00
40384;BME280;26097;42.366;23.818;2023-08-06T03:25:25;92924.22;;;17.35;100.00
40384;BME280;26097;42.366;23.818;2023-08-06T03:28:24;92908.28;;;17.43;100.00
40384;BME280;26097;42.366;23.818;2023-08-06T03:31:24;92914.19;;;17.45;100.00
40384;BME280;26097;42.366;23.818;2023-08-06T03:34:23;92904.94;;;17.49;100.00
40384;BME280;26097;42.366;23.818;2023-08-06T03:37:23;92902.53;;;17.54;100.00
40384;BME280;26097;42.366;23.818;2023-08-06T03:40:22;92898.38;;;17.67;100.00
40384;BME280;26097;42.366;23.818;2023-08-06T03:43:21;92918.72;;;17.73;100.00
40384;BME280;26097;42.366;23.818;2023-08-06T03:46:21;92916.47;;;17.70;100.00
40384;BME280;26097;42.366;23.818;2023-08-06T03:49:20;92897.25;;;17.76;100.00
40384;BME280;26097;42.366;23.818;2023-08-06T03:52:19;92884.06;;;17.76;100.00
40384;BME280;26097;42.366;23.818;2023-08-06T03:55:19;92877.16;;;17.75;100.00
40384;BME280;26097;42.366;23.818;2023-08-06T03:58:18;92881.19;;;17.71;100.00
40384;BME280;26097;42.366;23.818;2023-08-06T04:01:18;92902.13;;;17.79;100.00
40384;BME280;26097;42.366;23.818;2023-08-06T04:04:17;92916.41;;;17.63;100.00
40384;BME280;26097;42.366;23.818;2023-08-06T04:07:16;92947.81;;;17.65;100.00
40384;BME280;26097;42.366;23.818;2023-08-06T04:10:16;92940.28;;;17.62;100.00
40384;BME280;26097;42.366;23.818;2023-08-06T04:13:15;92910.84;;;17.58;100.00
40384;BME280;26097;42.366;23.818;2023-08-06T04:16:15;92894.94;;;17.66;100.00
40384;BME280;26097;42.366;23.818;2023-08-06T04:19:14;92905.91;;;17.70;100.00
40384;BME280;26097;42.366;23.818;2023-08-06T04:22:14;92893.22;;;17.80;100.00
40384;BME280;26097;42.366;23.818;2023-08-06T04:25:13;92885.44;;;17.94;100.00
40384;BME280;26097;42.366;23.818;2023-08-06T04:28:13;92864.94;;;18.18;100.00
40384;BME280;26097;42.366;23.818;2023-08-06T04:31:12;92877.19;;;18.32;100.00
40384;BME280;26097;42.366;23.818;2023-08-06T04:34:12;92882.91;;;18.42;100.00
40384;BME280;26097;42.366;23.818;2023-08-06T04:37:11;92885.03;;;18.54;100.00
40384;BME280;26097;42.366;23.818;2023-08-06T04:40:10;92882.91;;;18.78;100.00
40384;BME280;26097;42.366;23.818;2023-08-06T04:43:10;92852.44;;;18.82;100.00
40384;BME280;26097;42.366;23.818;2023-08-06T04:46:09;92850.59;;;18.76;100.00
40384;BME280;26097;42.366;23.818;2023-08-06T04:49:09;92863.19;;;18.74;100.00
40384;BME280;26097;42.366;23.818;2023-08-06T04:52:08;92856.19;;;18.52;100.00
40384;BME280;26097;42.366;23.818;2023-08-06T04:55:08;92849.28;;;18.51;100.00
40384;BME280;26097;42.366;23.818;2023-08-06T04:58:08;92852.09;;;18.43;100.00
40384;BME280;26097;42.366;23.818;2023-08-06T05:01:08;92854.50;;;18.38;100.00
40384;BME280;26097;42.366;23.818;2023-08-06T05:04:07;92841.66;;;18.28;100.00
40384;BME280;26097;42.366;23.818;2023-08-06T05:07:06;92841.03;;;18.26;100.00
40384;BME280;26097;42.366;23.818;2023-08-06T05:10:06;92822.66;;;18.04;100.00
40384;BME280;26097;42.366;23.818;2023-08-06T05:13:06;92821.53;;;17.92;100.00
40384;BME280;26097;42.366;23.818;2023-08-06T05:16:05;92822.13;;;17.87;100.00
40384;BME280;26097;42.366;23.818;2023-08-06T05:19:05;92832.22;;;17.83;100.00
40384;BME280;26097;42.366;23.818;2023-08-06T05:22:04;92831.75;;;17.73;100.00
40384;BME280;26097;42.366;23.818;2023-08-06T05:25:04;92826.09;;;17.76;100.00
40384;BME280;26097;42.366;23.818;2023-08-06T05:28:04;92822.56;;;17.91;100.00
40384;BME280;26097;42.366;23.818;2023-08-06T05:31:04;92817.91;;;17.93;100.00
40384;BME280;26097;42.366;23.818;2023-08-06T05:34:04;92821.38;;;18.00;100.00
40384;BME280;26097;42.366;23.818;2023-08-06T05:37:04;92821.06;;;18.10;100.00
40384;BME280;26097;42.366;23.818;2023-08-06T05:40:03;92832.94;;;18.27;100.00
40384;BME280;26097;42.366;23.818;2023-08-06T05:43:03;92831.16;;;18.41;100.00
40384;BME280;26097;42.366;23.818;2023-08-06T05:46:02;92827.38;;;18.51;100.00
40384;BME280;26097;42.366;23.818;2023-08-06T05:49:03;92835.50;;;18.56;100.00
40384;BME280;26097;42.366;23.818;2023-08-06T05:52:03;92836.31;;;18.50;100.00
40384;BME280;26097;42.366;23.818;2023-08-06T05:55:05;92837.94;;;18.51;100.00
40384;BME280;26097;42.366;23.818;2023-08-06T05:58:05;92840.84;;;18.69;100.00
40384;BME280;26097;42.366;23.818;2023-08-06T06:01:04;92845.75;;;18.86;100.00
40384;BME280;26097;42.366;23.818;2023-08-06T06:04:04;92852.34;;;19.04;100.00
40384;BME280;26097;42.366;23.818;2023-08-06T06:07:03;92852.56;;;19.16;100.00
40384;BME280;26097;42.366;23.818;2023-08-06T06:10:03;92860.75;;;19.34;100.00
40384;BME280;26097;42.366;23.818;2023-08-06T06:13:03;92878.69;;;19.66;100.00
40384;BME280;26097;42.366;23.818;2023-08-06T06:16:02;92883.78;;;20.01;100.00
40384;BME280;26097;42.366;23.818;2023-08-06T06:19:01;92887.88;;;20.17;100.00
40384;BME280;26097;42.366;23.818;2023-08-06T06:22:01;92889.88;;;20.22;100.00
40384;BME280;26097;42.366;23.818;2023-08-06T06:25:00;92895.59;;;20.19;100.00
40384;BME280;26097;42.366;23.818;2023-08-06T06:28:00;92892.75;;;20.14;100.00
40384;BME280;26097;42.366;23.818;2023-08-06T06:31:02;92891.13;;;20.12;100.00
40384;BME280;26097;42.366;23.818;2023-08-06T06:34:02;92898.84;;;20.21;100.00
40384;BME280;26097;42.366;23.818;2023-08-06T06:37:02;92889.09;;;20.28;100.00
40384;BME280;26097;42.366;23.818;2023-08-06T06:40:01;92898.44;;;20.31;100.00
40384;BME280;26097;42.366;23.818;2023-08-06T06:43:01;92904.97;;;20.28;100.00
40384;BME280;26097;42.366;23.818;2023-08-06T06:46:03;92919.56;;;19.83;100.00
40384;BME280;26097;42.366;23.818;2023-08-06T06:49:03;92921.59;;;19.81;100.00
40384;BME280;26097;42.366;23.818;2023-08-06T06:52:02;92928.31;;;19.77;100.00
40384;BME280;26097;42.366;23.818;2023-08-06T06:55:03;92932.56;;;19.65;100.00
40384;BME280;26097;42.366;23.818;2023-08-06T06:58:03;92937.47;;;19.68;100.00
40384;BME280;26097;42.366;23.818;2023-08-06T07:01:02;92961.41;;;19.60;100.00
40384;BME280;26097;42.366;23.818;2023-08-06T07:04:01;92971.16;;;19.52;100.00
40384;BME280;26097;42.366;23.818;2023-08-06T07:07:04;92959.13;;;19.36;100.00
40384;BME280;26097;42.366;23.818;2023-08-06T07:10:04;92970.16;;;19.53;100.00
40384;BME280;26097;42.366;23.818;2023-08-06T07:13:04;92961.84;;;19.63;100.00
40384;BME280;26097;42.366;23.818;2023-08-06T07:16:03;92964.16;;;20.00;100.00
40384;BME280;26097;42.366;23.818;2023-08-06T07:19:03;92959.84;;;19.86;100.00
40384;BME280;26097;42.366;23.818;2023-08-06T07:22:04;92959.91;;;20.12;100.00
40384;BME280;26097;42.366;23.818;2023-08-06T07:25:04;92956.63;;;20.64;100.00
40384;BME280;26097;42.366;23.818;2023-08-06T07:28:03;92963.50;;;20.92;100.00
40384;BME280;26097;42.366;23.818;2023-08-06T07:31:03;92954.19;;;20.56;100.00
40384;BME280;26097;42.366;23.818;2023-08-06T07:34:03;92954.94;;;20.77;100.00
40384;BME280;26097;42.366;23.818;2023-08-06T07:37:02;92953.34;;;20.89;100.00
40384;BME280;26097;42.366;23.818;2023-08-06T07:40:02;92947.94;;;21.16;100.00
40384;BME280;26097;42.366;23.818;2023-08-06T07:43:02;92942.44;;;21.18;100.00
40384;BME280;26097;42.366;23.818;2023-08-06T07:46:01;92944.66;;;21.21;100.00
40384;BME280;26097;42.366;23.818;2023-08-06T07:49:01;92943.06;;;21.13;100.00
40384;BME280;26097;42.366;23.818;2023-08-06T07:52:01;92933.25;;;21.66;100.00
40384;BME280;26097;42.366;23.818;2023-08-06T07:55:05;92946.56;;;21.52;100.00
40384;BME280;26097;42.366;23.818;2023-08-06T07:58:04;92944.72;;;21.53;100.00
40384;BME280;26097;42.366;23.818;2023-08-06T08:01:03;92939.16;;;21.68;100.00
40384;BME280;26097;42.366;23.818;2023-08-06T08:04:05;92939.38;;;22.24;100.00
40384;BME280;26097;42.366;23.818;2023-08-06T08:07:04;92942.44;;;22.53;100.00
40384;BME280;26097;42.366;23.818;2023-08-06T08:10:04;92950.25;;;22.41;100.00
40384;BME280;26097;42.366;23.818;2023-08-06T08:13:04;92953.88;;;22.53;100.00
40384;BME280;26097;42.366;23.818;2023-08-06T08:16:04;92953.34;;;21.80;100.00
40384;BME280;26097;42.366;23.818;2023-08-06T08:19:03;92957.56;;;21.56;100.00
40384;BME280;26097;42.366;23.818;2023-08-06T08:22:03;92961.16;;;21.30;100.00
40384;BME280;26097;42.366;23.818;2023-08-06T08:25:04;92950.00;;;22.24;100.00
40384;BME280;26097;42.366;23.818;2023-08-06T08:28:03;92948.72;;;22.59;100.00
40384;BME280;26097;42.366;23.818;2023-08-06T08:31:03;92945.53;;;23.31;100.00
40384;BME280;26097;42.366;23.818;2023-08-06T08:34:02;92942.03;;;23.12;100.00
40384;BME280;26097;42.366;23.818;2023-08-06T08:37:02;92937.69;;;22.99;100.00
40384;BME280;26097;42.366;23.818;2023-08-06T08:40:01;92941.88;;;23.44;100.00
40384;BME280;26097;42.366;23.818;2023-08-06T08:43:02;92930.34;;;23.50;100.00
40384;BME280;26097;42.366;23.818;2023-08-06T08:46:03;92923.81;;;23.34;100.00
40384;BME280;26097;42.366;23.818;2023-08-06T08:49:04;92921.91;;;23.84;100.00
40384;BME280;26097;42.366;23.818;2023-08-06T08:52:04;92923.72;;;24.02;100.00
40384;BME280;26097;42.366;23.818;2023-08-06T08:55:10;92922.50;;;24.64;100.00
40384;BME280;26097;42.366;23.818;2023-08-06T08:58:10;92921.91;;;24.98;100.00
40384;BME280;26097;42.366;23.818;2023-08-06T09:01:09;92906.16;;;24.37;100.00
40384;BME280;26097;42.366;23.818;2023-08-06T09:04:10;92900.47;;;23.36;100.00
40384;BME280;26097;42.366;23.818;2023-08-06T09:07:11;92908.19;;;23.99;100.00
40384;BME280;26097;42.366;23.818;2023-08-06T09:10:16;92892.59;;;24.15;100.00
40384;BME280;26097;42.366;23.818;2023-08-06T09:13:16;92892.50;;;24.57;100.00
40384;BME280;26097;42.366;23.818;2023-08-06T09:16:16;92879.19;;;24.45;100.00
40384;BME280;26097;42.366;23.818;2023-08-06T09:19:15;92873.50;;;24.65;100.00
40384;BME280;26097;42.366;23.818;2023-08-06T09:22:15;92866.06;;;24.91;100.00
40384;BME280;26097;42.366;23.818;2023-08-06T09:25:21;92861.13;;;25.53;100.00
40384;BME280;26097;42.366;23.818;2023-08-06T09:28:20;92856.09;;;24.99;94.35
40384;BME280;26097;42.366;23.818;2023-08-06T09:31:20;92863.38;;;25.03;96.44
40384;BME280;26097;42.366;23.818;2023-08-06T09:34:22;92858.72;;;25.10;89.49
40384;BME280;26097;42.366;23.818;2023-08-06T09:37:22;92874.84;;;25.04;87.69
40384;BME280;26097;42.366;23.818;2023-08-06T09:40:30;92857.38;;;25.37;84.57
40384;BME280;26097;42.366;23.818;2023-08-06T09:43:29;92860.09;;;25.71;88.24
40384;BME280;26097;42.366;23.818;2023-08-06T09:46:31;92858.47;;;25.53;81.02
40384;BME280;26097;42.366;23.818;2023-08-06T09:52:33;92853.53;;;26.08;75.10
40384;BME280;26097;42.366;23.818;2023-08-06T09:55:34;92871.97;;;26.44;75.67
40384;BME280;26097;42.366;23.818;2023-08-06T09:58:34;92864.38;;;26.18;66.88
40384;BME280;26097;42.366;23.818;2023-08-06T10:01:34;92881.22;;;26.19;68.96
40384;BME280;26097;42.366;23.818;2023-08-06T10:04:34;92882.22;;;26.52;65.66
40384;BME280;26097;42.366;23.818;2023-08-06T10:07:34;92873.09;;;26.48;64.34
40384;BME280;26097;42.366;23.818;2023-08-06T10:10:34;92872.03;;;27.05;65.42
40384;BME280;26097;42.366;23.818;2023-08-06T10:13:34;92877.75;;;27.14;62.48
40384;BME280;26097;42.366;23.818;2023-08-06T10:16:34;92886.91;;;26.62;61.20
40384;BME280;26097;42.366;23.818;2023-08-06T10:19:35;92894.59;;;26.92;61.01
40384;BME280;26097;42.366;23.818;2023-08-06T10:22:35;92881.72;;;26.72;54.07
40384;BME280;26097;42.366;23.818;2023-08-06T10:25:35;92872.25;;;26.64;53.96
40384;BME280;26097;42.366;23.818;2023-08-06T10:28:36;92864.31;;;26.87;51.98
40384;BME280;26097;42.366;23.818;2023-08-06T10:31:55;92862.75;;;27.13;49.41
40384;BME280;26097;42.366;23.818;2023-08-06T10:34:59;92865.13;;;27.59;51.00
40384;BME280;26097;42.366;23.818;2023-08-06T10:38:12;92873.75;;;27.39;48.29
40384;BME280;26097;42.366;23.818;2023-08-06T10:41:22;92873.75;;;27.39;48.41
40384;BME280;26097;42.366;23.818;2023-08-06T10:44:23;92875.22;;;27.30;49.58
40384;BME280;26097;42.366;23.818;2023-08-06T10:47:26;92884.72;;;27.15;50.92
40384;BME280;26097;42.366;23.818;2023-08-06T10:50:27;92889.50;;;27.58;47.85
40384;BME280;26097;42.366;23.818;2023-08-06T10:53:26;92891.66;;;27.61;47.82
40384;BME280;26097;42.366;23.818;2023-08-06T10:56:25;92908.13;;;28.02;46.10
40384;BME280;26097;42.366;23.818;2023-08-06T10:59:26;92887.53;;;28.78;45.07
40384;BME280;26097;42.366;23.818;2023-08-06T11:02:25;92889.44;;;28.40;45.38
40384;BME280;26097;42.366;23.818;2023-08-06T11:05:25;92881.53;;;29.04;46.50
40384;BME280;26097;42.366;23.818;2023-08-06T11:11:25;92883.66;;;29.71;45.52
40384;BME280;26097;42.366;23.818;2023-08-06T11:14:25;92906.03;;;28.75;47.85
40384;BME280;26097;42.366;23.818;2023-08-06T11:17:25;92906.09;;;27.60;50.93
40384;BME280;26097;42.366;23.818;2023-08-06T11:20:25;92931.59;;;26.66;54.20
40384;BME280;26097;42.366;23.818;2023-08-06T11:23:26;92906.16;;;25.78;59.22
40384;BME280;26097;42.366;23.818;2023-08-06T11:26:26;92917.41;;;27.00;55.07
40384;BME280;26097;42.366;23.818;2023-08-06T11:29:27;92909.09;;;28.51;52.26
40384;BME280;26097;42.366;23.818;2023-08-06T11:32:27;92908.22;;;27.13;50.66
40384;BME280;26097;42.366;23.818;2023-08-06T11:35:27;92910.13;;;26.96;50.41
40384;BME280;26097;42.366;23.818;2023-08-06T11:38:29;92930.31;;;26.52;48.61
40384;BME280;26097;42.366;23.818;2023-08-06T11:41:29;92921.88;;;26.09;48.55
40384;BME280;26097;42.366;23.818;2023-08-06T11:44:34;92920.34;;;26.99;46.03
40384;BME280;26097;42.366;23.818;2023-08-06T11:47:38;92929.41;;;26.80;48.42
40384;BME280;26097;42.366;23.818;2023-08-06T11:50:39;92929.53;;;27.75;46.11
40384;BME280;26097;42.366;23.818;2023-08-06T11:53:38;92938.47;;;27.86;44.73
40384;BME280;26097;42.366;23.818;2023-08-06T11:56:38;92914.94;;;28.48;44.91
40384;BME280;26097;42.366;23.818;2023-08-06T11:59:38;92917.13;;;28.51;44.60
40384;BME280;26097;42.366;23.818;2023-08-06T12:02:43;92924.00;;;28.42;45.07
40384;BME280;26097;42.366;23.818;2023-08-06T12:05:44;92921.84;;;28.39;46.40
40384;BME280;26097;42.366;23.818;2023-08-06T12:08:46;92904.16;;;28.38;46.88
40384;BME280;26097;42.366;23.818;2023-08-06T12:11:45;92914.44;;;28.18;45.62
40384;BME280;26097;42.366;23.818;2023-08-06T12:14:44;92918.41;;;27.16;48.31
40384;BME280;26097;42.366;23.818;2023-08-06T12:17:44;92913.13;;;26.14;49.94
40384;BME280;26097;42.366;23.818;2023-08-06T12:20:43;92923.78;;;27.16;47.69
40384;BME280;26097;42.366;23.818;2023-08-06T12:23:43;92925.81;;;27.09;46.14
40384;BME280;26097;42.366;23.818;2023-08-06T12:26:42;92924.28;;;27.13;44.12
40384;BME280;26097;42.366;23.818;2023-08-06T12:29:47;92920.53;;;27.36;45.97
40384;BME280;26097;42.366;23.818;2023-08-06T12:32:47;92924.53;;;28.11;45.34
40384;BME280;26097;42.366;23.818;2023-08-06T12:35:46;92946.00;;;27.89;44.89
40384;BME280;26097;42.366;23.818;2023-08-06T12:38:46;92920.41;;;27.04;45.17
40384;BME280;26097;42.366;23.818;2023-08-06T12:41:45;92909.75;;;26.01;48.07
40384;BME280;26097;42.366;23.818;2023-08-06T12:44:45;92917.31;;;25.92;48.74
40384;BME280;26097;42.366;23.818;2023-08-06T12:47:44;92914.28;;;26.52;47.51
40384;BME280;26097;42.366;23.818;2023-08-06T12:50:44;92926.19;;;27.40;45.44
40384;BME280;26097;42.366;23.818;2023-08-06T12:53:44;92927.38;;;27.27;44.50
40384;BME280;26097;42.366;23.818;2023-08-06T12:56:43;92934.28;;;27.45;45.07
40384;BME280;26097;42.366;23.818;2023-08-06T12:59:43;92940.78;;;26.54;45.90
40384;BME280;26097;42.366;23.818;2023-08-06T13:02:42;92943.28;;;26.60;46.34
40384;BME280;26097;42.366;23.818;2023-08-06T13:05:42;92940.63;;;27.17;45.10
40384;BME280;26097;42.366;23.818;2023-08-06T13:08:42;92942.97;;;27.53;44.45
40384;BME280;26097;42.366;23.818;2023-08-06T13:11:41;92948.13;;;28.14;41.08
40384;BME280;26097;42.366;23.818;2023-08-06T13:14:41;92932.34;;;28.45;41.54
40384;BME280;26097;42.366;23.818;2023-08-06T13:17:40;92923.97;;;29.17;41.70
40384;BME280;26097;42.366;23.818;2023-08-06T13:20:40;92926.56;;;29.45;40.88
40384;BME280;26097;42.366;23.818;2023-08-06T13:23:40;92915.56;;;28.98;40.74
40384;BME280;26097;42.366;23.818;2023-08-06T13:26:39;92922.09;;;28.37;42.05
40384;BME280;26097;42.366;23.818;2023-08-06T13:29:38;92929.72;;;28.88;40.08
40384;BME280;26097;42.366;23.818;2023-08-06T13:32:38;92938.09;;;28.97;40.65
40384;BME280;26097;42.366;23.818;2023-08-06T13:35:38;92939.53;;;28.12;44.01
40384;BME280;26097;42.366;23.818;2023-08-06T13:38:37;92957.16;;;28.63;42.93
40384;BME280;26097;42.366;23.818;2023-08-06T13:41:37;92945.09;;;27.78;43.69
40384;BME280;26097;42.366;23.818;2023-08-06T13:44:37;92953.91;;;27.73;44.25
40384;BME280;26097;42.366;23.818;2023-08-06T13:47:37;92957.13;;;26.91;45.31
40384;BME280;26097;42.366;23.818;2023-08-06T13:50:36;92949.72;;;27.60;44.55
40384;BME280;26097;42.366;23.818;2023-08-06T13:53:39;92952.56;;;28.58;42.26
40384;BME280;26097;42.366;23.818;2023-08-06T13:56:39;92973.63;;;28.44;41.22
40384;BME280;26097;42.366;23.818;2023-08-06T13:59:38;92975.66;;;28.64;41.35
40384;BME280;26097;42.366;23.818;2023-08-06T14:02:38;92973.38;;;29.27;41.27
40384;BME280;26097;42.366;23.818;2023-08-06T14:05:37;92973.25;;;28.30;43.07
40384;BME280;26097;42.366;23.818;2023-08-06T14:08:37;92970.75;;;28.56;41.37
40384;BME280;26097;42.366;23.818;2023-08-06T14:11:36;92952.97;;;28.45;42.35
40384;BME280;26097;42.366;23.818;2023-08-06T14:14:36;92959.25;;;28.28;41.76
40384;BME280;26097;42.366;23.818;2023-08-06T14:17:35;92953.63;;;28.25;42.10
40384;BME280;26097;42.366;23.818;2023-08-06T14:20:35;92945.00;;;28.50;40.98
40384;BME280;26097;42.366;23.818;2023-08-06T14:23:34;92955.34;;;29.12;39.70
40384;BME280;26097;42.366;23.818;2023-08-06T14:26:33;92956.69;;;29.09;40.86
40384;BME280;26097;42.366;23.818;2023-08-06T14:29:33;92957.56;;;28.82;41.49
40384;BME280;26097;42.366;23.818;2023-08-06T14:32:33;92960.47;;;29.18;40.65
40384;BME280;26097;42.366;23.818;2023-08-06T14:35:32;92966.91;;;29.17;39.67
40384;BME280;26097;42.366;23.818;2023-08-06T14:38:31;92965.94;;;29.34;40.27
40384;BME280;26097;42.366;23.818;2023-08-06T14:41:31;92959.53;;;28.59;41.23
40384;BME280;26097;42.366;23.818;2023-08-06T14:44:30;92966.72;;;28.86;40.38
40384;BME280;26097;42.366;23.818;2023-08-06T14:47:30;92963.25;;;28.53;40.15
40384;BME280;26097;42.366;23.818;2023-08-06T14:50:29;92961.34;;;28.86;40.05
40384;BME280;26097;42.366;23.818;2023-08-06T14:53:28;92957.38;;;28.56;39.83
40384;BME280;26097;42.366;23.818;2023-08-06T14:56:28;92955.72;;;29.31;39.63
40384;BME280;26097;42.366;23.818;2023-08-06T14:59:27;92950.84;;;29.22;39.72
40384;BME280;26097;42.366;23.818;2023-08-06T15:02:27;92938.66;;;29.53;38.57
40384;BME280;26097;42.366;23.818;2023-08-06T15:05:27;92955.66;;;29.20;38.22
40384;BME280;26097;42.366;23.818;2023-08-06T15:08:26;92951.41;;;29.30;39.05
40384;BME280;26097;42.366;23.818;2023-08-06T15:11:26;92963.84;;;28.65;39.78
40384;BME280;26097;42.366;23.818;2023-08-06T15:14:25;92967.97;;;29.16;40.66
40384;BME280;26097;42.366;23.818;2023-08-06T15:17:25;92959.66;;;28.75;40.12
40384;BME280;26097;42.366;23.818;2023-08-06T15:20:25;92966.16;;;28.51;41.29
40384;BME280;26097;42.366;23.818;2023-08-06T15:23:25;92962.59;;;28.13;41.51
40384;BME280;26097;42.366;23.818;2023-08-06T15:26:24;92958.22;;;28.62;41.48
40384;BME280;26097;42.366;23.818;2023-08-06T15:29:24;92957.91;;;28.58;41.04
40384;BME280;26097;42.366;23.818;2023-08-06T15:32:23;92953.69;;;28.68;41.79
40384;BME280;26097;42.366;23.818;2023-08-06T15:35:23;92952.44;;;29.24;41.02
40384;BME280;26097;42.366;23.818;2023-08-06T15:38:22;92938.94;;;29.08;39.13
40384;BME280;26097;42.366;23.818;2023-08-06T15:41:22;92951.97;;;28.51;39.27
40384;BME280;26097;42.366;23.818;2023-08-06T15:44:21;92948.72;;;28.49;39.90